Starksboro, Vermont
Current Conditions -  °F | °C
As of 2:54 PM on Sunday 23 Nov 2014 (Local Time) from KBTV Reporting Station
Broken Clouds Broken Clouds  
Wind Chill: 11°   Ceiling: 4200
Heat Index: 11°   Visibility: 10mi
Dew Point:   Wind: 8mph
Humidity: 61%   Direction: 180°S
Pressure: 30.04"   Gusts: NA
Location:  44.23°N, 73.06°W
Report Text: KBTV 231954Z 18007KT 10SM BKN042 BKN050 11/04 A3004 RMK AO2 SLP173 T01110039
Loading
Personal Weather Stations






























Interactive Weather Map New forecast layout! Learn more

10-Day Weather Forecast

Advertisements
Track Severe Weather on mobile